createdAt,value
2022-09-05T00:02:17.814Z,100.00
2022-09-05T00:05:23.554Z,100.00
2022-09-05T00:08:30.446Z,100.00
2022-09-05T00:11:42.899Z,100.00
2022-09-05T00:15:15.833Z,100.00
2022-09-05T00:23:17.594Z,100.00
2022-09-05T00:24:37.608Z,100.00
2022-09-05T00:28:35.945Z,100.00
2022-09-05T00:31:54.275Z,100.00
2022-09-05T00:35:06.766Z,100.00
2022-09-05T00:38:12.574Z,100.00
2022-09-05T00:41:20.713Z,100.00
2022-09-05T00:44:28.852Z,100.00
2022-09-05T00:47:34.741Z,100.00
2022-09-05T00:50:40.858Z,100.00
2022-09-05T00:53:46.608Z,100.00
2022-09-05T00:57:05.009Z,100.00
2022-09-05T01:00:17.089Z,100.00
2022-09-05T01:03:25.002Z,100.00
2022-09-05T01:06:30.922Z,100.00
2022-09-05T01:09:37.379Z,100.00
2022-09-05T01:12:52.905Z,100.00
2022-09-05T01:16:19.622Z,100.00
2022-09-05T01:19:26.446Z,100.00
2022-09-05T01:22:33.905Z,100.00
2022-09-05T01:25:47.133Z,100.00
2022-09-05T01:29:17.164Z,100.00
2022-09-05T01:32:26.122Z,100.00
2022-09-05T01:35:32.507Z,100.00
2022-09-05T01:38:38.590Z,100.00
2022-09-05T01:41:48.541Z,100.00
2022-09-05T01:44:57.058Z,100.00
2022-09-05T01:48:03.246Z,100.00
2022-09-05T01:51:29.217Z,100.00
2022-09-05T01:54:37.157Z,100.00
2022-09-05T01:57:43.707Z,100.00
2022-09-05T02:00:49.784Z,100.00
2022-09-05T02:03:58.080Z,100.00
2022-09-05T02:10:37.703Z,100.00
2022-09-05T02:13:43.583Z,100.00
2022-09-05T02:16:53.984Z,100.00
2022-09-05T02:19:59.956Z,100.00
2022-09-05T02:23:40.178Z,100.00
2022-09-05T02:26:31.851Z,100.00
2022-09-05T02:29:37.911Z,100.00
2022-09-05T02:32:45.743Z,100.00
2022-09-05T02:35:52.228Z,100.00
2022-09-05T02:43:51.879Z,100.00
2022-09-05T02:45:21.086Z,100.00
2022-09-05T02:46:09.484Z,100.00
2022-09-05T02:50:14.157Z,100.00
2022-09-05T02:57:40.449Z,100.00
2022-09-05T02:57:41.359Z,100.00
2022-09-05T02:59:36.860Z,100.00
2022-09-05T03:02:42.417Z,100.00
2022-09-05T03:05:48.385Z,100.00
2022-09-05T03:08:55.903Z,100.00
2022-09-05T03:12:18.997Z,100.00
2022-09-05T03:15:31.050Z,100.00
2022-09-05T03:18:36.942Z,100.00
2022-09-05T03:21:43.487Z,100.00
2022-09-05T03:24:55.827Z,100.00
2022-09-05T03:28:04.535Z,100.00
2022-09-05T03:31:22.069Z,100.00
2022-09-05T03:34:28.985Z,100.00
2022-09-05T03:37:35.305Z,100.00
2022-09-05T03:40:41.964Z,100.00
2022-09-05T03:43:47.924Z,100.00
2022-09-05T03:47:00.111Z,100.00
2022-09-05T03:53:29.409Z,100.00
2022-09-05T03:57:19.057Z,100.00
2022-09-05T03:57:25.010Z,100.00
2022-09-05T04:00:30.502Z,100.00
2022-09-05T04:07:41.458Z,100.00
2022-09-05T04:08:17.040Z,100.00
2022-09-05T04:10:29.945Z,100.00
2022-09-05T04:13:35.970Z,100.00
2022-09-05T04:16:43.214Z,100.00
2022-09-05T04:19:50.161Z,100.00
2022-09-05T04:22:57.230Z,100.00
2022-09-05T04:26:12.569Z,100.00
2022-09-05T04:29:18.858Z,100.00
2022-09-05T04:32:25.022Z,100.00
2022-09-05T04:35:33.432Z,100.00
2022-09-05T04:38:39.562Z,100.00
2022-09-05T04:41:46.192Z,100.00
2022-09-05T04:44:55.797Z,100.00
2022-09-05T04:48:07.346Z,100.00
2022-09-05T04:51:15.162Z,100.00
2022-09-05T04:54:21.509Z,100.00
2022-09-05T04:57:32.746Z,100.00
2022-09-05T05:04:23.749Z,100.00
2022-09-05T05:06:09.093Z,100.00
2022-09-05T05:07:33.359Z,100.00
2022-09-05T05:15:21.737Z,100.00
2022-09-05T05:18:00.929Z,100.00
2022-09-05T05:18:13.271Z,100.00
2022-09-05T05:21:18.284Z,100.00
2022-09-05T05:24:23.790Z,100.00
2022-09-05T05:27:33.342Z,100.00
2022-09-05T05:30:39.718Z,100.00
2022-09-05T05:33:49.532Z,100.00
2022-09-05T05:40:40.972Z,100.00
2022-09-05T05:43:56.664Z,100.00
2022-09-05T05:47:02.654Z,100.00
2022-09-05T05:50:11.530Z,100.00
2022-09-05T05:53:33.558Z,100.00
2022-09-05T05:56:43.450Z,100.00
2022-09-05T05:59:56.352Z,100.00
2022-09-05T06:03:25.978Z,100.00
2022-09-05T06:06:33.185Z,100.00
2022-09-05T06:14:51.679Z,100.00
2022-09-05T06:15:00.910Z,100.00
2022-09-05T06:16:36.396Z,100.00
2022-09-05T06:20:15.022Z,100.00
2022-09-05T06:23:10.548Z,100.00
2022-09-05T06:26:33.628Z,100.00
2022-09-05T06:29:41.070Z,100.00
2022-09-05T06:32:58.051Z,100.00
2022-09-05T06:36:07.318Z,100.00
2022-09-05T06:39:19.545Z,100.00
2022-09-05T06:42:42.713Z,100.00
2022-09-05T06:45:58.590Z,100.00
2022-09-05T06:49:32.197Z,100.00
2022-09-05T06:52:36.153Z,100.00
2022-09-05T06:55:42.462Z,100.00
2022-09-05T06:58:48.285Z,100.00
2022-09-05T07:02:01.154Z,100.00
2022-09-05T07:05:36.877Z,100.00
2022-09-05T07:08:37.160Z,100.00
2022-09-05T07:11:59.502Z,100.00
2022-09-05T07:15:08.915Z,100.00
2022-09-05T07:18:16.107Z,100.00
2022-09-05T07:21:26.801Z,100.00
2022-09-05T07:24:55.173Z,100.00
2022-09-05T07:28:29.078Z,100.00
2022-09-05T07:31:37.157Z,100.00
2022-09-05T07:34:45.154Z,100.00
2022-09-05T07:37:55.268Z,100.00
2022-09-05T07:41:05.933Z,100.00
2022-09-05T07:44:11.355Z,100.00
2022-09-05T07:47:23.591Z,100.00
2022-09-05T07:55:00.522Z,99.60
2022-09-05T07:56:59.385Z,99.33
2022-09-05T07:57:30.710Z,98.83
2022-09-05T08:00:37.326Z,99.30
2022-09-05T08:03:45.494Z,97.64
2022-09-05T08:07:47.734Z,96.79
2022-09-05T08:10:35.599Z,93.75
2022-09-05T08:14:10.466Z,94.25
2022-09-05T08:17:26.347Z,92.59
2022-09-05T08:20:37.147Z,89.28
2022-09-05T08:23:46.354Z,90.00
2022-09-05T08:26:53.543Z,89.93
2022-09-05T08:30:24.791Z,90.40
2022-09-05T08:33:36.134Z,87.23
2022-09-05T08:36:46.205Z,87.12
2022-09-05T08:39:54.246Z,84.95
2022-09-05T08:46:10.205Z,83.63
2022-09-05T08:46:49.783Z,82.66
2022-09-05T08:49:59.302Z,83.69
2022-09-05T08:53:26.813Z,83.09
2022-09-05T08:56:32.527Z,82.06
2022-09-05T08:59:38.293Z,82.85
2022-09-05T09:03:09.571Z,81.67
2022-09-05T09:06:16.215Z,80.71
2022-09-05T09:09:24.834Z,82.13
2022-09-05T09:12:32.047Z,80.57
2022-09-05T09:15:37.943Z,79.24
2022-09-05T09:18:44.977Z,78.58
2022-09-05T09:21:53.755Z,77.74
2022-09-05T09:25:15.123Z,77.97
2022-09-05T09:28:48.745Z,77.06
2022-09-05T09:31:48.226Z,77.07
2022-09-05T09:34:57.139Z,76.70
2022-09-05T09:38:05.465Z,77.71
2022-09-05T09:41:19.367Z,76.58
2022-09-05T09:44:25.145Z,77.98
2022-09-05T09:47:31.481Z,78.00
2022-09-05T09:50:38.090Z,77.85
2022-09-05T09:53:53.026Z,76.90
2022-09-05T09:57:05.676Z,76.76
2022-09-05T10:00:12.051Z,77.68
2022-09-05T10:04:31.169Z,75.35
2022-09-05T10:10:43.933Z,75.06
2022-09-05T10:10:58.711Z,76.06
2022-09-05T10:13:44.350Z,73.61
2022-09-05T10:16:53.484Z,71.74
2022-09-05T10:20:10.019Z,69.28
2022-09-05T10:23:18.522Z,70.07
2022-09-05T10:26:24.759Z,68.97
2022-09-05T10:29:36.696Z,66.83
2022-09-05T10:35:04.672Z,68.75
2022-09-05T10:36:17.459Z,64.45
2022-09-05T10:39:24.826Z,63.32
2022-09-05T10:42:30.586Z,65.56
2022-09-05T10:45:40.417Z,68.61
2022-09-05T10:48:49.927Z,69.39
2022-09-05T10:51:58.729Z,70.77
2022-09-05T10:55:26.403Z,65.70
2022-09-05T10:59:54.183Z,69.41
2022-09-05T11:02:25.981Z,70.97
2022-09-05T11:05:29.980Z,68.55
2022-09-05T11:08:40.001Z,67.11
2022-09-05T11:11:46.930Z,67.10
2022-09-05T11:14:53.581Z,67.20
2022-09-05T11:17:59.893Z,67.08
2022-09-05T11:21:08.789Z,64.21
2022-09-05T11:24:15.900Z,63.77
2022-09-05T11:27:24.708Z,64.80
2022-09-05T11:30:38.165Z,63.15
2022-09-05T11:36:11.785Z,64.04
2022-09-05T11:40:01.997Z,64.77
2022-09-05T11:40:59.135Z,62.63
2022-09-05T11:51:06.821Z,61.75
2022-09-05T11:54:16.009Z,55.62
2022-09-05T11:57:33.831Z,49.99
2022-09-05T12:00:40.829Z,49.13
2022-09-05T12:03:58.918Z,49.13
2022-09-05T12:07:31.788Z,49.41
2022-09-05T12:10:47.339Z,47.81
2022-09-05T12:15:32.716Z,49.03
2022-09-05T12:18:19.486Z,49.59
2022-09-05T12:21:18.376Z,49.44
2022-09-05T12:25:17.983Z,48.19
2022-09-05T12:29:29.053Z,47.41
2022-09-05T12:33:32.735Z,45.31
2022-09-05T12:36:13.205Z,46.18
2022-09-05T12:41:37.137Z,46.00
2022-09-05T12:44:38.903Z,45.58
2022-09-05T12:46:26.702Z,46.14
2022-09-05T12:49:35.244Z,45.84
2022-09-05T12:52:43.667Z,47.18
2022-09-05T12:57:10.988Z,46.70
2022-09-05T13:03:03.545Z,48.00
2022-09-05T13:03:35.534Z,45.04
2022-09-05T13:06:44.780Z,45.49
2022-09-05T13:12:45.248Z,44.30
2022-09-05T13:14:53.867Z,44.95
2022-09-05T13:17:00.485Z,43.24
2022-09-05T13:20:10.570Z,44.01
2022-09-05T13:23:21.275Z,44.27
2022-09-05T13:26:41.233Z,45.63
2022-09-05T13:33:22.661Z,45.56
2022-09-05T13:38:01.206Z,45.98
2022-09-05T13:38:13.583Z,45.74
2022-09-05T13:41:27.109Z,46.51
2022-09-05T13:44:41.252Z,48.02
2022-09-05T13:51:15.909Z,48.80
2022-09-05T13:54:52.553Z,48.56
2022-09-05T13:58:11.809Z,49.05
2022-09-05T14:01:26.527Z,48.98
2022-09-05T14:08:02.585Z,47.49
2022-09-05T14:11:13.192Z,46.44
2022-09-05T14:18:12.784Z,46.19
2022-09-05T14:21:27.815Z,45.54
2022-09-05T14:24:36.703Z,45.02
2022-09-05T14:36:12.308Z,45.29
2022-09-05T14:37:53.210Z,46.09
2022-09-05T14:38:14.865Z,45.23
2022-09-05T14:42:03.583Z,46.00
2022-09-05T14:45:07.736Z,44.76
2022-09-05T14:48:14.253Z,45.01
2022-09-05T14:51:29.540Z,44.80
2022-09-05T15:02:45.268Z,46.33
2022-09-05T15:03:00.150Z,46.57
2022-09-05T15:04:57.468Z,45.88
2022-09-05T15:08:18.264Z,45.26
2022-09-05T15:12:22.076Z,46.24
2022-09-05T15:15:16.241Z,45.83
2022-09-05T15:18:21.904Z,46.60
2022-09-05T15:21:33.639Z,45.78
2022-09-05T15:24:41.363Z,44.42
2022-09-05T15:27:50.753Z,45.36
2022-09-05T15:30:57.663Z,44.93
2022-09-05T15:34:12.622Z,46.13
2022-09-05T15:37:22.299Z,45.72
2022-09-05T15:40:30.627Z,46.68
2022-09-05T15:43:36.752Z,46.83
2022-09-05T15:46:59.876Z,47.59
2022-09-05T15:50:06.103Z,46.69
2022-09-05T15:53:33.016Z,47.51
2022-09-05T15:56:39.881Z,48.19
2022-09-05T15:59:53.567Z,47.02
2022-09-05T16:03:23.094Z,46.14
2022-09-05T16:10:35.221Z,43.89
2022-09-05T16:10:45.712Z,43.54
2022-09-05T16:13:52.664Z,38.45
2022-09-05T16:23:15.173Z,36.00
2022-09-05T16:23:25.130Z,35.21
2022-09-05T16:23:53.389Z,34.12
2022-09-05T16:27:05.812Z,33.98
2022-09-05T16:30:16.541Z,33.80
2022-09-05T16:33:23.635Z,33.17
2022-09-05T16:36:31.238Z,33.29
2022-09-05T16:39:37.031Z,31.97
2022-09-05T16:42:47.916Z,33.12
2022-09-05T16:45:53.531Z,31.74
2022-09-05T16:48:59.359Z,32.39
2022-09-05T16:52:08.230Z,32.91
2022-09-05T16:55:18.401Z,36.41
2022-09-05T16:58:38.181Z,36.01
2022-09-05T17:01:47.233Z,39.79
2022-09-05T17:05:04.303Z,40.75
2022-09-05T17:08:16.235Z,44.34
2022-09-05T17:12:00.002Z,45.89
2022-09-05T17:15:09.313Z,50.32
2022-09-05T17:18:22.073Z,51.35
2022-09-05T17:23:17.335Z,53.47
2022-09-05T17:29:16.639Z,55.10
2022-09-05T17:29:42.080Z,57.06
2022-09-05T17:31:57.825Z,59.44
2022-09-05T17:35:17.100Z,61.60
2022-09-05T17:38:38.896Z,62.69
2022-09-05T17:41:45.442Z,64.08
2022-09-05T17:44:56.591Z,65.20
2022-09-05T17:48:03.999Z,67.87
2022-09-05T17:51:09.889Z,68.67
2022-09-05T17:54:18.960Z,69.84
2022-09-05T17:57:34.212Z,70.82
2022-09-05T18:00:40.902Z,70.79
2022-09-05T18:03:47.149Z,72.26
2022-09-05T18:07:00.298Z,73.45
2022-09-05T18:10:15.395Z,75.82
2022-09-05T18:13:33.362Z,76.42
2022-09-05T18:17:35.307Z,78.15
2022-09-05T18:20:14.278Z,78.15
2022-09-05T18:23:39.571Z,78.73
2022-09-05T18:26:48.926Z,80.36
2022-09-05T18:30:06.088Z,80.17
2022-09-05T18:34:03.743Z,83.59
2022-09-05T18:36:41.761Z,85.84
2022-09-05T18:39:47.707Z,87.02
2022-09-05T18:42:54.049Z,87.35
2022-09-05T18:46:08.361Z,87.88
2022-09-05T18:50:21.632Z,88.58
2022-09-05T18:52:47.245Z,89.17
2022-09-05T18:56:14.015Z,89.70
2022-09-05T18:59:24.029Z,90.47
2022-09-05T19:02:51.478Z,90.15
2022-09-05T19:06:37.082Z,90.69
2022-09-05T19:09:27.592Z,92.10
2022-09-05T19:12:38.999Z,92.40
2022-09-05T19:15:53.089Z,93.78
2022-09-05T19:23:11.351Z,94.82
2022-09-05T19:26:13.951Z,95.82
2022-09-05T19:36:46.757Z,95.73
2022-09-05T19:37:02.954Z,97.65
2022-09-05T19:37:10.871Z,96.51
2022-09-05T19:43:44.869Z,97.90
2022-09-05T19:47:33.998Z,100.00
2022-09-05T19:47:45.337Z,100.00
2022-09-05T19:49:58.644Z,100.00
2022-09-05T19:53:06.467Z,100.00
2022-09-05T19:56:12.493Z,100.00
2022-09-05T19:59:21.301Z,100.00
2022-09-05T20:02:27.187Z,100.00
2022-09-05T20:05:35.249Z,100.00
2022-09-05T20:08:42.465Z,100.00
2022-09-05T20:11:58.096Z,100.00
2022-09-05T20:15:04.715Z,100.00
2022-09-05T20:18:26.638Z,100.00
2022-09-05T20:21:35.732Z,100.00
2022-09-05T20:24:41.925Z,100.00
2022-09-05T20:27:50.170Z,100.00
2022-09-05T20:30:56.185Z,100.00
2022-09-05T20:34:10.587Z,100.00
2022-09-05T20:43:14.457Z,100.00
2022-09-05T20:43:16.800Z,100.00
2022-09-05T20:44:33.940Z,100.00
2022-09-05T20:54:05.456Z,100.00
2022-09-05T20:54:22.370Z,100.00
2022-09-05T20:54:41.186Z,100.00
2022-09-05T20:57:48.676Z,100.00
2022-09-05T21:01:21.947Z,100.00
2022-09-05T21:04:37.881Z,100.00
2022-09-05T21:07:43.654Z,100.00
2022-09-05T21:10:55.731Z,100.00
2022-09-05T21:14:04.597Z,100.00
2022-09-05T21:17:15.630Z,100.00
2022-09-05T21:20:25.255Z,100.00
2022-09-05T21:23:31.811Z,100.00
2022-09-05T21:26:37.597Z,100.00
2022-09-05T21:29:44.082Z,100.00
2022-09-05T21:32:51.986Z,100.00
2022-09-05T21:35:58.780Z,100.00
2022-09-05T21:39:05.013Z,100.00
2022-09-05T21:42:51.761Z,100.00
2022-09-05T21:47:46.807Z,100.00
2022-09-05T21:49:07.451Z,100.00
2022-09-05T21:52:15.669Z,100.00
2022-09-05T21:59:20.005Z,100.00
2022-09-05T21:59:27.967Z,100.00
2022-09-05T22:02:26.730Z,100.00
2022-09-05T22:05:35.855Z,100.00
2022-09-05T22:08:41.289Z,100.00
2022-09-05T22:12:14.567Z,100.00
2022-09-05T22:15:32.471Z,100.00
2022-09-05T22:18:45.480Z,100.00
2022-09-05T22:21:52.361Z,100.00
2022-09-05T22:24:57.780Z,100.00
2022-09-05T22:28:08.746Z,100.00
2022-09-05T22:31:14.605Z,100.00
2022-09-05T22:34:20.960Z,100.00
2022-09-05T22:37:28.302Z,100.00
2022-09-05T22:40:33.829Z,100.00
2022-09-05T22:43:39.768Z,100.00
2022-09-05T22:46:45.760Z,100.00
2022-09-05T22:49:52.231Z,100.00
2022-09-05T22:53:14.899Z,100.00
2022-09-05T22:56:20.559Z,100.00
2022-09-05T22:59:26.377Z,100.00
2022-09-05T23:02:32.712Z,100.00
2022-09-05T23:05:39.397Z,100.00
2022-09-05T23:08:44.830Z,100.00
2022-09-05T23:11:50.619Z,100.00
2022-09-05T23:15:04.105Z,100.00
2022-09-05T23:18:10.080Z,100.00
2022-09-05T23:21:16.412Z,100.00
2022-09-05T23:24:22.676Z,100.00
2022-09-05T23:27:30.126Z,100.00
2022-09-05T23:30:48.603Z,100.00
2022-09-05T23:34:01.806Z,100.00
2022-09-05T23:37:08.326Z,100.00
2022-09-05T23:40:17.893Z,100.00
2022-09-05T23:43:27.452Z,100.00
2022-09-05T23:46:33.656Z,100.00
2022-09-05T23:49:40.190Z,100.00
2022-09-05T23:52:47.286Z,100.00
2022-09-05T23:56:15.867Z,100.00
2022-09-05T23:59:23.010Z,100.00
